Time;durP1;ratioP1;P1;durP2;ratioP2;P2;SDS_P1;SDS_P2;PMS_P1;PMS_P2;Temp;Humidity;BMP_temperature;BMP_pressure;BME280_temperature;BME280_humidity;BME280_pressure;Samples;Min_cycle;Max_cycle;Signal;HPM_P1;HPM_P2
2022/06/26 00:01:00;;;;;;;4.8;3.55;;;;;;;17.52;79.99609;95089.47;;;;
2022/06/26 00:02:00;;;;;;;4.8;3.55;;;;;;;17.52;79.99609;95089.47;;;;
2022/06/26 00:03:01;;;;;;;4.8;3.55;;;;;;;17.52;79.99609;95089.47;;;;
2022/06/26 00:04:01;;;;;;;4.8;3.55;;;;;;;17.52;79.99609;95089.47;;;;
2022/06/26 00:05:03;;;;;;;4.8;3.55;;;;;;;17.52;79.99609;95089.47;;;;
2022/06/26 00:06:05;;;;;;;4.8;3.55;;;;;;;17.52;79.99609;95089.47;;;;
2022/06/26 00:07:06;;;;;;;4.8;3.55;;;;;;;17.52;79.99609;95089.47;;;;
2022/06/26 00:08:08;;;;;;;3.7;3.4;;;;;;;17.31;80.38477;95082.76;;;;
2022/06/26 00:09:08;;;;;;;3.7;3.4;;;;;;;17.31;80.38477;95082.76;;;;
2022/06/26 00:10:09;;;;;;;3.7;3.4;;;;;;;17.31;80.38477;95082.76;;;;
2022/06/26 00:11:10;;;;;;;3.7;3.4;;;;;;;17.31;80.38477;95082.76;;;;
2022/06/26 00:12:10;;;;;;;3.7;3.4;;;;;;;17.31;80.38477;95082.76;;;;
2022/06/26 00:13:11;;;;;;;3.7;3.4;;;;;;;17.31;80.38477;95082.76;;;;
2022/06/26 00:14:12;;;;;;;3.7;3.4;;;;;;;17.31;80.38477;95082.76;;;;
2022/06/26 00:15:12;;;;;;;3.7;3.4;;;;;;;17.31;80.38477;95082.76;;;;
2022/06/26 00:16:13;;;;;;;3.7;3.4;;;;;;;17.31;80.38477;95082.76;;;;
2022/06/26 00:17:13;;;;;;;3.7;3.4;;;;;;;17.31;80.38477;95082.76;;;;
2022/06/26 00:18:14;;;;;;;3.7;3.4;;;;;;;17.31;80.38477;95082.76;;;;
2022/06/26 00:19:15;;;;;;;3.6;3.3;;;;;;;17.17;80.7832;95098.17;;;;
2022/06/26 00:20:16;;;;;;;3.6;3.3;;;;;;;17.17;80.7832;95098.17;;;;
2022/06/26 00:21:16;;;;;;;3.6;3.3;;;;;;;17.17;80.7832;95098.17;;;;
2022/06/26 00:22:17;;;;;;;3.6;3.3;;;;;;;17.17;80.7832;95098.17;;;;
2022/06/26 00:23:17;;;;;;;3.6;3.3;;;;;;;17.17;80.7832;95098.17;;;;
2022/06/26 00:24:18;;;;;;;3.6;3.3;;;;;;;17.17;80.7832;95098.17;;;;
2022/06/26 00:25:18;;;;;;;3.6;3.3;;;;;;;17.17;80.7832;95098.17;;;;
2022/06/26 00:26:19;;;;;;;3.6;3.3;;;;;;;17.17;80.7832;95098.17;;;;
2022/06/26 00:27:19;;;;;;;3.6;3.3;;;;;;;17.17;80.7832;95098.17;;;;
2022/06/26 00:28:20;;;;;;;3.6;3.3;;;;;;;17.17;80.7832;95098.17;;;;
2022/06/26 00:29:20;;;;;;;3.6;3.3;;;;;;;17.17;80.7832;95098.17;;;;
2022/06/26 00:30:21;;;;;;;4.4;3.35;;;;;;;17.06;81.15625;95102.25;;;;
2022/06/26 00:31:22;;;;;;;4.4;3.35;;;;;;;17.06;81.15625;95102.25;;;;
2022/06/26 00:32:22;;;;;;;4.4;3.35;;;;;;;17.06;81.15625;95102.25;;;;
2022/06/26 00:33:23;;;;;;;4.4;3.35;;;;;;;17.06;81.15625;95102.25;;;;
2022/06/26 00:34:23;;;;;;;4.4;3.35;;;;;;;17.06;81.15625;95102.25;;;;
2022/06/26 00:35:24;;;;;;;4.4;3.35;;;;;;;17.06;81.15625;95102.25;;;;
2022/06/26 00:36:24;;;;;;;4.4;3.35;;;;;;;17.06;81.15625;95102.25;;;;
2022/06/26 00:37:25;;;;;;;4.4;3.35;;;;;;;17.06;81.15625;95102.25;;;;
2022/06/26 00:38:25;;;;;;;4.4;3.35;;;;;;;17.06;81.15625;95102.25;;;;
2022/06/26 00:39:26;;;;;;;4.4;3.35;;;;;;;17.06;81.15625;95102.25;;;;
2022/06/26 00:40:26;;;;;;;3.8;3.5;;;;;;;17.11;81.4248;95100.14;;;;
2022/06/26 00:41:27;;;;;;;3.8;3.5;;;;;;;17.11;81.4248;95100.14;;;;
2022/06/26 00:42:28;;;;;;;3.8;3.5;;;;;;;17.11;81.4248;95100.14;;;;
2022/06/26 00:43:28;;;;;;;3.8;3.5;;;;;;;17.11;81.4248;95100.14;;;;
2022/06/26 00:44:29;;;;;;;3.8;3.5;;;;;;;17.11;81.4248;95100.14;;;;
2022/06/26 00:45:30;;;;;;;3.8;3.5;;;;;;;17.11;81.4248;95100.14;;;;
2022/06/26 00:46:31;;;;;;;3.8;3.5;;;;;;;17.11;81.4248;95100.14;;;;
2022/06/26 00:47:31;;;;;;;3.8;3.5;;;;;;;17.11;81.4248;95100.14;;;;
2022/06/26 00:48:32;;;;;;;3.8;3.5;;;;;;;17.11;81.4248;95100.14;;;;
2022/06/26 00:49:32;;;;;;;3.8;3.5;;;;;;;17.11;81.4248;95100.14;;;;
2022/06/26 00:50:33;;;;;;;3.8;3.5;;;;;;;17.11;81.4248;95100.14;;;;
2022/06/26 00:51:34;;;;;;;4.399999;3.9;;;;;;;17.11;81.65527;95105.89;;;;
2022/06/26 00:52:38;;;;;;;4.399999;3.9;;;;;;;17.11;81.65527;95105.89;;;;
2022/06/26 00:53:40;;;;;;;4.399999;3.9;;;;;;;17.11;81.65527;95105.89;;;;
2022/06/26 00:54:41;;;;;;;4.399999;3.9;;;;;;;17.11;81.65527;95105.89;;;;
2022/06/26 00:55:42;;;;;;;4.399999;3.9;;;;;;;17.11;81.65527;95105.89;;;;
2022/06/26 00:56:42;;;;;;;4.399999;3.9;;;;;;;17.11;81.65527;95105.89;;;;
2022/06/26 00:57:43;;;;;;;4.399999;3.9;;;;;;;17.11;81.65527;95105.89;;;;
2022/06/26 00:58:44;;;;;;;4.399999;3.9;;;;;;;17.11;81.65527;95105.89;;;;
2022/06/26 00:59:44;;;;;;;4.399999;3.9;;;;;;;17.11;81.65527;95105.89;;;;
2022/06/26 01:00:46;;;;;;;4.399999;3.9;;;;;;;17.11;81.65527;95105.89;;;;
2022/06/26 01:01:46;;;;;;;4.299999;3.95;;;;;;;17.17;81.92773;95103.11;;;;
2022/06/26 01:02:47;;;;;;;4.299999;3.95;;;;;;;17.17;81.92773;95103.11;;;;
2022/06/26 01:03:47;;;;;;;4.299999;3.95;;;;;;;17.17;81.92773;95103.11;;;;
2022/06/26 01:04:48;;;;;;;4.299999;3.95;;;;;;;17.17;81.92773;95103.11;;;;
2022/06/26 01:05:48;;;;;;;4.299999;3.95;;;;;;;17.17;81.92773;95103.11;;;;
2022/06/26 01:06:49;;;;;;;4.299999;3.95;;;;;;;17.17;81.92773;95103.11;;;;
2022/06/26 01:07:51;;;;;;;4.299999;3.95;;;;;;;17.17;81.92773;95103.11;;;;
2022/06/26 01:08:51;;;;;;;4.299999;3.95;;;;;;;17.17;81.92773;95103.11;;;;
2022/06/26 01:09:52;;;;;;;4.299999;3.95;;;;;;;17.17;81.92773;95103.11;;;;
2022/06/26 01:10:52;;;;;;;4.299999;3.95;;;;;;;17.17;81.92773;95103.11;;;;
2022/06/26 01:11:53;;;;;;;4.299999;3.95;;;;;;;17.17;81.92773;95103.11;;;;
2022/06/26 01:12:54;;;;;;;4.199999;3.8;;;;;;;17.18;82.08203;95105.55;;;;
2022/06/26 01:13:54;;;;;;;4.199999;3.8;;;;;;;17.18;82.08203;95105.55;;;;
2022/06/26 01:14:56;;;;;;;4.199999;3.8;;;;;;;17.18;82.08203;95105.55;;;;
2022/06/26 01:15:58;;;;;;;4.199999;3.8;;;;;;;17.18;82.08203;95105.55;;;;
2022/06/26 01:16:59;;;;;;;4.199999;3.8;;;;;;;17.18;82.08203;95105.55;;;;
2022/06/26 01:17:59;;;;;;;4.199999;3.8;;;;;;;17.18;82.08203;95105.55;;;;
2022/06/26 01:19:00;;;;;;;4.199999;3.8;;;;;;;17.18;82.08203;95105.55;;;;
2022/06/26 01:20:01;;;;;;;4.199999;3.8;;;;;;;17.18;82.08203;95105.55;;;;
2022/06/26 01:21:04;;;;;;;4.199999;3.8;;;;;;;17.18;82.08203;95105.55;;;;
2022/06/26 01:22:06;;;;;;;4.199999;3.8;;;;;;;17.18;82.08203;95105.55;;;;
2022/06/26 01:23:06;;;;;;;4;3.7;;;;;;;17.27;82.29492;95108.94;;;;
2022/06/26 01:24:08;;;;;;;4;3.7;;;;;;;17.27;82.29492;95108.94;;;;
2022/06/26 01:25:08;;;;;;;4;3.7;;;;;;;17.27;82.29492;95108.94;;;;
2022/06/26 01:26:09;;;;;;;4;3.7;;;;;;;17.27;82.29492;95108.94;;;;
2022/06/26 01:27:09;;;;;;;4;3.7;;;;;;;17.27;82.29492;95108.94;;;;
2022/06/26 01:28:10;;;;;;;4;3.7;;;;;;;17.27;82.29492;95108.94;;;;
2022/06/26 01:29:11;;;;;;;4;3.7;;;;;;;17.27;82.29492;95108.94;;;;
2022/06/26 01:30:12;;;;;;;4;3.7;;;;;;;17.27;82.29492;95108.94;;;;
2022/06/26 01:31:12;;;;;;;4;3.7;;;;;;;17.27;82.29492;95108.94;;;;
2022/06/26 01:32:13;;;;;;;4;3.7;;;;;;;17.27;82.29492;95108.94;;;;
2022/06/26 01:33:14;;;;;;;4;3.7;;;;;;;17.27;82.29492;95108.94;;;;
2022/06/26 01:34:15;;;;;;;3.95;3.6;;;;;;;17.29;82.50781;95112.98;;;;
2022/06/26 01:35:16;;;;;;;3.95;3.6;;;;;;;17.29;82.50781;95112.98;;;;
2022/06/26 01:36:16;;;;;;;3.95;3.6;;;;;;;17.29;82.50781;95112.98;;;;
2022/06/26 01:37:17;;;;;;;3.95;3.6;;;;;;;17.29;82.50781;95112.98;;;;
2022/06/26 01:38:18;;;;;;;3.95;3.6;;;;;;;17.29;82.50781;95112.98;;;;
2022/06/26 01:39:20;;;;;;;3.95;3.6;;;;;;;17.29;82.50781;95112.98;;;;
2022/06/26 01:40:20;;;;;;;3.95;3.6;;;;;;;17.29;82.50781;95112.98;;;;
2022/06/26 01:41:21;;;;;;;3.95;3.6;;;;;;;17.29;82.50781;95112.98;;;;
2022/06/26 01:42:21;;;;;;;3.95;3.6;;;;;;;17.29;82.50781;95112.98;;;;
2022/06/26 01:43:22;;;;;;;3.95;3.6;;;;;;;17.29;82.50781;95112.98;;;;
2022/06/26 01:44:25;;;;;;;3.85;3.55;;;;;;;17.34;82.68848;95101.1;;;;
2022/06/26 01:45:25;;;;;;;3.85;3.55;;;;;;;17.34;82.68848;95101.1;;;;
2022/06/26 01:46:26;;;;;;;3.85;3.55;;;;;;;17.34;82.68848;95101.1;;;;
2022/06/26 01:47:26;;;;;;;3.85;3.55;;;;;;;17.34;82.68848;95101.1;;;;
2022/06/26 01:48:27;;;;;;;3.85;3.55;;;;;;;17.34;82.68848;95101.1;;;;
2022/06/26 01:49:29;;;;;;;3.85;3.55;;;;;;;17.34;82.68848;95101.1;;;;
2022/06/26 01:50:29;;;;;;;3.85;3.55;;;;;;;17.34;82.68848;95101.1;;;;
2022/06/26 01:51:30;;;;;;;3.85;3.55;;;;;;;17.34;82.68848;95101.1;;;;
2022/06/26 01:52:30;;;;;;;3.85;3.55;;;;;;;17.34;82.68848;95101.1;;;;
2022/06/26 01:53:31;;;;;;;3.85;3.55;;;;;;;17.34;82.68848;95101.1;;;;
2022/06/26 01:54:32;;;;;;;3.85;3.55;;;;;;;17.34;82.68848;95101.1;;;;
2022/06/26 01:55:32;;;;;;;3.85;3.55;;;;;;;17.34;82.68848;95101.1;;;;
2022/06/26 01:56:33;;;;;;;3.85;3.55;;;;;;;17.34;82.68848;95101.1;;;;
2022/06/26 01:57:34;;;;;;;3.85;3.55;;;;;;;17.34;82.68848;95101.1;;;;
2022/06/26 01:58:34;;;;;;;3.85;3.55;;;;;;;17.34;82.68848;95101.1;;;;
2022/06/26 01:59:35;;;;;;;3.85;3.55;;;;;;;17.34;82.68848;95101.1;;;;
2022/06/26 02:00:35;;;;;;;3.85;3.55;;;;;;;17.34;82.68848;95101.1;;;;
2022/06/26 02:01:37;;;;;;;3.85;3.55;;;;;;;17.34;82.68848;95101.1;;;;
2022/06/26 02:02:38;;;;;;;3.85;3.55;;;;;;;17.34;82.68848;95101.1;;;;
2022/06/26 02:03:39;;;;;;;3.85;3.55;;;;;;;17.34;82.68848;95101.1;;;;
2022/06/26 02:04:39;;;;;;;3.85;3.55;;;;;;;17.34;82.68848;95101.1;;;;
2022/06/26 02:05:40;;;;;;;3.85;3.4;;;;;;;17.29;83.1709;95102.4;;;;
2022/06/26 02:06:40;;;;;;;3.85;3.4;;;;;;;17.29;83.1709;95102.4;;;;
2022/06/26 02:07:41;;;;;;;3.85;3.4;;;;;;;17.29;83.1709;95102.4;;;;
2022/06/26 02:08:41;;;;;;;3.85;3.4;;;;;;;17.29;83.1709;95102.4;;;;
2022/06/26 02:14:56;;;;;;;3.85;3.4;;;;;;;17.29;83.1709;95102.4;;;;
2022/06/26 02:15:56;;;;;;;3.85;3.4;;;;;;;17.29;83.1709;95102.4;;;;
2022/06/26 02:16:57;;;;;;;3.6;3.3;;;;;;;17.24;83.33398;95110.38;;;;
2022/06/26 02:17:57;;;;;;;3.6;3.3;;;;;;;17.24;83.33398;95110.38;;;;
2022/06/26 02:18:58;;;;;;;3.6;3.3;;;;;;;17.24;83.33398;95110.38;;;;
2022/06/26 02:19:59;;;;;;;3.6;3.3;;;;;;;17.24;83.33398;95110.38;;;;
2022/06/26 02:20:59;;;;;;;3.6;3.3;;;;;;;17.24;83.33398;95110.38;;;;
2022/06/26 02:22:01;;;;;;;3.6;3.3;;;;;;;17.24;83.33398;95110.38;;;;
2022/06/26 02:23:01;;;;;;;3.6;3.3;;;;;;;17.24;83.33398;95110.38;;;;
2022/06/26 02:24:02;;;;;;;3.6;3.3;;;;;;;17.24;83.33398;95110.38;;;;
2022/06/26 02:25:04;;;;;;;3.6;3.3;;;;;;;17.24;83.33398;95110.38;;;;
2022/06/26 02:26:05;;;;;;;3.6;3.3;;;;;;;17.24;83.33398;95110.38;;;;
2022/06/26 02:27:07;;;;;;;3.9;3.25;;;;;;;17.33;83.5791;95116.47;;;;
2022/06/26 02:28:07;;;;;;;3.9;3.25;;;;;;;17.33;83.5791;95116.47;;;;
2022/06/26 02:29:08;;;;;;;3.9;3.25;;;;;;;17.33;83.5791;95116.47;;;;
2022/06/26 02:30:08;;;;;;;3.9;3.25;;;;;;;17.33;83.5791;95116.47;;;;
2022/06/26 02:31:10;;;;;;;3.9;3.25;;;;;;;17.33;83.5791;95116.47;;;;
2022/06/26 02:32:11;;;;;;;3.9;3.25;;;;;;;17.33;83.5791;95116.47;;;;
2022/06/26 02:33:11;;;;;;;3.9;3.25;;;;;;;17.33;83.5791;95116.47;;;;
2022/06/26 02:34:12;;;;;;;3.9;3.25;;;;;;;17.33;83.5791;95116.47;;;;
2022/06/26 02:35:13;;;;;;;3.9;3.25;;;;;;;17.33;83.5791;95116.47;;;;
2022/06/26 02:36:13;;;;;;;3.9;3.25;;;;;;;17.33;83.5791;95116.47;;;;
2022/06/26 02:37:14;;;;;;;3.9;3.25;;;;;;;17.33;83.5791;95116.47;;;;
2022/06/26 02:38:15;;;;;;;3.55;3.25;;;;;;;17.35;83.64941;95145.86;;;;
2022/06/26 02:39:16;;;;;;;3.55;3.25;;;;;;;17.35;83.64941;95145.86;;;;
2022/06/26 02:40:17;;;;;;;3.55;3.25;;;;;;;17.35;83.64941;95145.86;;;;
2022/06/26 02:41:18;;;;;;;3.55;3.25;;;;;;;17.35;83.64941;95145.86;;;;
2022/06/26 02:42:19;;;;;;;3.55;3.25;;;;;;;17.35;83.64941;95145.86;;;;
2022/06/26 02:43:19;;;;;;;3.55;3.25;;;;;;;17.35;83.64941;95145.86;;;;
2022/06/26 02:44:21;;;;;;;3.55;3.25;;;;;;;17.35;83.64941;95145.86;;;;
2022/06/26 02:45:22;;;;;;;3.55;3.25;;;;;;;17.35;83.64941;95145.86;;;;
2022/06/26 02:46:23;;;;;;;3.55;3.25;;;;;;;17.35;83.64941;95145.86;;;;
2022/06/26 02:47:23;;;;;;;3.55;3.25;;;;;;;17.35;83.64941;95145.86;;;;
2022/06/26 02:48:24;;;;;;;3.4;3.1;;;;;;;17.42;83.83789;95180.27;;;;
2022/06/26 02:49:24;;;;;;;3.4;3.1;;;;;;;17.42;83.83789;95180.27;;;;
2022/06/26 02:50:25;;;;;;;3.4;3.1;;;;;;;17.42;83.83789;95180.27;;;;
2022/06/26 02:51:26;;;;;;;3.4;3.1;;;;;;;17.42;83.83789;95180.27;;;;
2022/06/26 02:52:26;;;;;;;3.4;3.1;;;;;;;17.42;83.83789;95180.27;;;;
2022/06/26 02:53:26;;;;;;;3.4;3.1;;;;;;;17.42;83.83789;95180.27;;;;
2022/06/26 02:54:27;;;;;;;3.4;3.1;;;;;;;17.42;83.83789;95180.27;;;;
2022/06/26 02:55:27;;;;;;;3.4;3.1;;;;;;;17.42;83.83789;95180.27;;;;
2022/06/26 02:56:28;;;;;;;3.4;3.1;;;;;;;17.42;83.83789;95180.27;;;;
2022/06/26 02:57:28;;;;;;;3.4;3.1;;;;;;;17.42;83.83789;95180.27;;;;
2022/06/26 02:58:29;;;;;;;3.4;3.1;;;;;;;17.42;83.83789;95180.27;;;;
2022/06/26 02:59:30;;;;;;;3.2;2.85;;;;;;;17.41;83.89063;95189.33;;;;
2022/06/26 03:00:30;;;;;;;3.2;2.85;;;;;;;17.41;83.89063;95189.33;;;;
2022/06/26 03:01:31;;;;;;;3.2;2.85;;;;;;;17.41;83.89063;95189.33;;;;
2022/06/26 03:02:32;;;;;;;3.2;2.85;;;;;;;17.41;83.89063;95189.33;;;;
2022/06/26 03:03:32;;;;;;;3.2;2.85;;;;;;;17.41;83.89063;95189.33;;;;
2022/06/26 03:04:33;;;;;;;3.2;2.85;;;;;;;17.41;83.89063;95189.33;;;;
2022/06/26 03:05:33;;;;;;;3.2;2.85;;;;;;;17.41;83.89063;95189.33;;;;
2022/06/26 03:06:35;;;;;;;3.2;2.85;;;;;;;17.41;83.89063;95189.33;;;;
2022/06/26 03:07:35;;;;;;;3.2;2.85;;;;;;;17.41;83.89063;95189.33;;;;
2022/06/26 03:08:36;;;;;;;3.2;2.85;;;;;;;17.41;83.89063;95189.33;;;;
2022/06/26 03:09:36;;;;;;;4.2;3.2;;;;;;;17.43;83.92578;95202.06;;;;
2022/06/26 03:10:37;;;;;;;4.2;3.2;;;;;;;17.43;83.92578;95202.06;;;;
2022/06/26 03:11:40;;;;;;;4.2;3.2;;;;;;;17.43;83.92578;95202.06;;;;
2022/06/26 03:12:41;;;;;;;4.2;3.2;;;;;;;17.43;83.92578;95202.06;;;;
2022/06/26 03:13:44;;;;;;;4.2;3.2;;;;;;;17.43;83.92578;95202.06;;;;
2022/06/26 03:14:44;;;;;;;4.2;3.2;;;;;;;17.43;83.92578;95202.06;;;;
2022/06/26 03:15:45;;;;;;;4.2;3.2;;;;;;;17.43;83.92578;95202.06;;;;
2022/06/26 03:16:46;;;;;;;4.2;3.2;;;;;;;17.43;83.92578;95202.06;;;;
2022/06/26 03:17:46;;;;;;;4.2;3.2;;;;;;;17.43;83.92578;95202.06;;;;
2022/06/26 03:18:47;;;;;;;4.2;3.2;;;;;;;17.43;83.92578;95202.06;;;;
2022/06/26 03:19:48;;;;;;;4.2;3.2;;;;;;;17.43;83.92578;95202.06;;;;
2022/06/26 03:20:48;;;;;;;4.45;3.2;;;;;;;17.33;83.91992;95194.22;;;;
2022/06/26 03:21:49;;;;;;;4.45;3.2;;;;;;;17.33;83.91992;95194.22;;;;
2022/06/26 03:22:50;;;;;;;4.45;3.2;;;;;;;17.33;83.91992;95194.22;;;;
2022/06/26 03:24:01;;;;;;;4.45;3.2;;;;;;;17.33;83.91992;95194.22;;;;
2022/06/26 03:25:02;;;;;;;4.45;3.2;;;;;;;17.33;83.91992;95194.22;;;;
2022/06/26 03:26:03;;;;;;;4.45;3.2;;;;;;;17.33;83.91992;95194.22;;;;
2022/06/26 03:27:04;;;;;;;4.45;3.2;;;;;;;17.33;83.91992;95194.22;;;;
2022/06/26 03:28:05;;;;;;;4.45;3.2;;;;;;;17.33;83.91992;95194.22;;;;
2022/06/26 03:29:06;;;;;;;4.45;3.2;;;;;;;17.33;83.91992;95194.22;;;;
2022/06/26 03:30:08;;;;;;;4.45;3.2;;;;;;;17.33;83.91992;95194.22;;;;
2022/06/26 03:31:11;;;;;;;3.15;2.95;;;;;;;17.29;84.07715;95201.15;;;;
2022/06/26 03:32:11;;;;;;;3.15;2.95;;;;;;;17.29;84.07715;95201.15;;;;
2022/06/26 03:33:12;;;;;;;3.15;2.95;;;;;;;17.29;84.07715;95201.15;;;;
2022/06/26 03:34:12;;;;;;;3.15;2.95;;;;;;;17.29;84.07715;95201.15;;;;
2022/06/26 03:35:13;;;;;;;3.15;2.95;;;;;;;17.29;84.07715;95201.15;;;;
2022/06/26 03:36:13;;;;;;;3.15;2.95;;;;;;;17.29;84.07715;95201.15;;;;
2022/06/26 03:37:14;;;;;;;3.15;2.95;;;;;;;17.29;84.07715;95201.15;;;;
2022/06/26 03:38:15;;;;;;;3.15;2.95;;;;;;;17.29;84.07715;95201.15;;;;
2022/06/26 03:39:15;;;;;;;3.15;2.95;;;;;;;17.29;84.07715;95201.15;;;;
2022/06/26 03:40:16;;;;;;;3.15;2.95;;;;;;;17.29;84.07715;95201.15;;;;
2022/06/26 03:41:16;;;;;;;3.15;2.95;;;;;;;17.29;84.07715;95201.15;;;;
2022/06/26 03:42:18;;;;;;;3.25;3.05;;;;;;;17.12;84.2373;95225.02;;;;
2022/06/26 03:43:18;;;;;;;3.25;3.05;;;;;;;17.12;84.2373;95225.02;;;;
2022/06/26 03:44:19;;;;;;;3.25;3.05;;;;;;;17.12;84.2373;95225.02;;;;
2022/06/26 03:45:19;;;;;;;3.25;3.05;;;;;;;17.12;84.2373;95225.02;;;;
2022/06/26 03:46:20;;;;;;;3.25;3.05;;;;;;;17.12;84.2373;95225.02;;;;
2022/06/26 03:47:20;;;;;;;3.25;3.05;;;;;;;17.12;84.2373;95225.02;;;;
2022/06/26 03:48:21;;;;;;;3.25;3.05;;;;;;;17.12;84.2373;95225.02;;;;
2022/06/26 03:49:22;;;;;;;3.25;3.05;;;;;;;17.12;84.2373;95225.02;;;;
2022/06/26 03:50:23;;;;;;;3.25;3.05;;;;;;;17.12;84.2373;95225.02;;;;
2022/06/26 03:51:24;;;;;;;3.25;3.05;;;;;;;17.12;84.2373;95225.02;;;;
2022/06/26 03:52:24;;;;;;;3.7;2.900001;;;;;;;17.09;84.5166;95229.54;;;;
2022/06/26 03:53:25;;;;;;;3.7;2.900001;;;;;;;17.09;84.5166;95229.54;;;;
2022/06/26 03:54:26;;;;;;;3.7;2.900001;;;;;;;17.09;84.5166;95229.54;;;;
2022/06/26 03:55:27;;;;;;;3.7;2.900001;;;;;;;17.09;84.5166;95229.54;;;;
2022/06/26 03:56:27;;;;;;;3.7;2.900001;;;;;;;17.09;84.5166;95229.54;;;;
2022/06/26 03:57:28;;;;;;;3.7;2.900001;;;;;;;17.09;84.5166;95229.54;;;;
2022/06/26 03:58:28;;;;;;;3.7;2.900001;;;;;;;17.09;84.5166;95229.54;;;;
2022/06/26 03:59:29;;;;;;;3.7;2.900001;;;;;;;17.09;84.5166;95229.54;;;;
2022/06/26 04:00:30;;;;;;;3.7;2.900001;;;;;;;17.09;84.5166;95229.54;;;;
2022/06/26 04:01:31;;;;;;;3.7;2.900001;;;;;;;17.09;84.5166;95229.54;;;;
2022/06/26 04:02:31;;;;;;;3.7;2.900001;;;;;;;17.09;84.5166;95229.54;;;;
2022/06/26 04:03:32;;;;;;;3.45;3.15;;;;;;;17.09;84.59277;95228.61;;;;
2022/06/26 04:04:32;;;;;;;3.45;3.15;;;;;;;17.09;84.59277;95228.61;;;;
2022/06/26 04:05:33;;;;;;;3.45;3.15;;;;;;;17.09;84.59277;95228.61;;;;
2022/06/26 04:06:35;;;;;;;3.45;3.15;;;;;;;17.09;84.59277;95228.61;;;;
2022/06/26 04:07:35;;;;;;;3.45;3.15;;;;;;;17.09;84.59277;95228.61;;;;
2022/06/26 04:08:36;;;;;;;3.45;3.15;;;;;;;17.09;84.59277;95228.61;;;;
2022/06/26 04:09:36;;;;;;;3.45;3.15;;;;;;;17.09;84.59277;95228.61;;;;
2022/06/26 04:10:37;;;;;;;3.45;3.15;;;;;;;17.09;84.59277;95228.61;;;;
2022/06/26 04:11:38;;;;;;;3.45;3.15;;;;;;;17.09;84.59277;95228.61;;;;
2022/06/26 04:12:39;;;;;;;3.45;3.15;;;;;;;17.09;84.59277;95228.61;;;;
2022/06/26 04:13:39;;;;;;;3.5;3.15;;;;;;;17.41;84.63184;95232.64;;;;
2022/06/26 04:14:41;;;;;;;3.5;3.15;;;;;;;17.41;84.63184;95232.64;;;;
2022/06/26 04:15:41;;;;;;;3.5;3.15;;;;;;;17.41;84.63184;95232.64;;;;
2022/06/26 04:16:42;;;;;;;3.5;3.15;;;;;;;17.41;84.63184;95232.64;;;;
2022/06/26 04:17:42;;;;;;;3.5;3.15;;;;;;;17.41;84.63184;95232.64;;;;
2022/06/26 04:18:44;;;;;;;3.5;3.15;;;;;;;17.41;84.63184;95232.64;;;;
2022/06/26 04:19:44;;;;;;;3.5;3.15;;;;;;;17.41;84.63184;95232.64;;;;
2022/06/26 04:20:45;;;;;;;3.5;3.15;;;;;;;17.41;84.63184;95232.64;;;;
2022/06/26 04:21:45;;;;;;;3.5;3.15;;;;;;;17.41;84.63184;95232.64;;;;
2022/06/26 04:22:46;;;;;;;3.5;3.15;;;;;;;17.41;84.63184;95232.64;;;;
2022/06/26 04:23:55;;;;;;;3.5;3.15;;;;;;;17.41;84.63184;95232.64;;;;
2022/06/26 04:24:55;;;;;;;3;2.7;;;;;;;17.93;84.22852;95241.99;;;;
2022/06/26 04:25:56;;;;;;;3;2.7;;;;;;;17.93;84.22852;95241.99;;;;
2022/06/26 04:26:56;;;;;;;3;2.7;;;;;;;17.93;84.22852;95241.99;;;;
2022/06/26 04:27:57;;;;;;;3;2.7;;;;;;;17.93;84.22852;95241.99;;;;
2022/06/26 04:28:58;;;;;;;3;2.7;;;;;;;17.93;84.22852;95241.99;;;;
2022/06/26 04:29:58;;;;;;;3;2.7;;;;;;;17.93;84.22852;95241.99;;;;
2022/06/26 04:30:59;;;;;;;3;2.7;;;;;;;17.93;84.22852;95241.99;;;;
2022/06/26 04:31:59;;;;;;;3;2.7;;;;;;;17.93;84.22852;95241.99;;;;
2022/06/26 04:33:00;;;;;;;3;2.7;;;;;;;17.93;84.22852;95241.99;;;;
2022/06/26 04:34:00;;;;;;;3;2.7;;;;;;;17.93;84.22852;95241.99;;;;
2022/06/26 04:35:01;;;;;;;3.8;2.7;;;;;;;18.5;83.7793;95246.06;;;;
2022/06/26 04:36:02;;;;;;;3.8;2.7;;;;;;;18.5;83.7793;95246.06;;;;
2022/06/26 04:37:04;;;;;;;3.8;2.7;;;;;;;18.5;83.7793;95246.06;;;;
2022/06/26 04:38:04;;;;;;;3.8;2.7;;;;;;;18.5;83.7793;95246.06;;;;
2022/06/26 04:39:05;;;;;;;3.8;2.7;;;;;;;18.5;83.7793;95246.06;;;;
2022/06/26 04:40:06;;;;;;;3.8;2.7;;;;;;;18.5;83.7793;95246.06;;;;
2022/06/26 04:41:42;;;;;;;3.8;2.7;;;;;;;18.5;83.7793;95246.06;;;;
2022/06/26 04:42:42;;;;;;;3.8;2.7;;;;;;;18.5;83.7793;95246.06;;;;
2022/06/26 04:43:43;;;;;;;3.8;2.7;;;;;;;18.5;83.7793;95246.06;;;;
2022/06/26 04:44:43;;;;;;;3.8;2.7;;;;;;;18.5;83.7793;95246.06;;;;
2022/06/26 04:45:44;;;;;;;2.6;2.4;;;;;;;18.83;83.45801;95232.26;;;;
2022/06/26 04:46:46;;;;;;;2.6;2.4;;;;;;;18.83;83.45801;95232.26;;;;
2022/06/26 04:47:47;;;;;;;2.6;2.4;;;;;;;18.83;83.45801;95232.26;;;;
2022/06/26 04:48:48;;;;;;;2.6;2.4;;;;;;;18.83;83.45801;95232.26;;;;
2022/06/26 04:49:48;;;;;;;2.6;2.4;;;;;;;18.83;83.45801;95232.26;;;;
2022/06/26 04:50:49;;;;;;;2.6;2.4;;;;;;;18.83;83.45801;95232.26;;;;
2022/06/26 04:51:49;;;;;;;2.6;2.4;;;;;;;18.83;83.45801;95232.26;;;;
2022/06/26 04:52:49;;;;;;;2.6;2.4;;;;;;;18.83;83.45801;95232.26;;;;
2022/06/26 04:53:50;;;;;;;2.6;2.4;;;;;;;18.83;83.45801;95232.26;;;;
2022/06/26 04:54:50;;;;;;;2.6;2.4;;;;;;;18.83;83.45801;95232.26;;;;
2022/06/26 04:55:51;;;;;;;2.6;2.4;;;;;;;18.83;83.45801;95232.26;;;;
2022/06/26 04:56:51;;;;;;;2.6;2.4;;;;;;;18.83;83.45801;95232.26;;;;
2022/06/26 04:57:52;;;;;;;2.6;2.4;;;;;;;18.83;83.45801;95232.26;;;;
2022/06/26 04:58:53;;;;;;;2.6;2.4;;;;;;;18.83;83.45801;95232.26;;;;
2022/06/26 04:59:53;;;;;;;2.6;2.4;;;;;;;18.83;83.45801;95232.26;;;;
2022/06/26 05:00:54;;;;;;;2.6;2.4;;;;;;;18.83;83.45801;95232.26;;;;
2022/06/26 05:01:54;;;;;;;2.6;2.4;;;;;;;18.83;83.45801;95232.26;;;;
2022/06/26 05:02:55;;;;;;;2.6;2.4;;;;;;;18.83;83.45801;95232.26;;;;
2022/06/26 05:03:55;;;;;;;2.6;2.4;;;;;;;18.83;83.45801;95232.26;;;;
2022/06/26 05:04:56;;;;;;;2.6;2.4;;;;;;;18.83;83.45801;95232.26;;;;
2022/06/26 05:05:56;;;;;;;2.6;2.4;;;;;;;18.83;83.45801;95232.26;;;;
2022/06/26 05:06:57;;;;;;;2.6;2.4;;;;;;;19.38;83.06934;95240.01;;;;
2022/06/26 05:07:58;;;;;;;2.6;2.4;;;;;;;19.38;83.06934;95240.01;;;;
2022/06/26 05:08:58;;;;;;;2.6;2.4;;;;;;;19.38;83.06934;95240.01;;;;
2022/06/26 05:09:59;;;;;;;2.6;2.4;;;;;;;19.38;83.06934;95240.01;;;;
2022/06/26 05:11:00;;;;;;;2.6;2.4;;;;;;;19.38;83.06934;95240.01;;;;
2022/06/26 05:12:00;;;;;;;2.6;2.4;;;;;;;19.38;83.06934;95240.01;;;;
2022/06/26 05:13:01;;;;;;;2.6;2.4;;;;;;;19.38;83.06934;95240.01;;;;
2022/06/26 05:14:01;;;;;;;2.6;2.4;;;;;;;19.38;83.06934;95240.01;;;;
2022/06/26 05:15:02;;;;;;;2.6;2.4;;;;;;;19.38;83.06934;95240.01;;;;
2022/06/26 05:16:03;;;;;;;2.6;2.4;;;;;;;19.38;83.06934;95240.01;;;;
2022/06/26 05:17:04;;;;;;;2.6;2.4;;;;;;;19.38;83.06934;95240.01;;;;
2022/06/26 05:18:04;;;;;;;4.099999;2.3;;;;;;;19.73;82.62988;95231.96;;;;
2022/06/26 05:19:05;;;;;;;4.099999;2.3;;;;;;;19.73;82.62988;95231.96;;;;
2022/06/26 05:20:06;;;;;;;4.099999;2.3;;;;;;;19.73;82.62988;95231.96;;;;
2022/06/26 05:21:07;;;;;;;4.099999;2.3;;;;;;;19.73;82.62988;95231.96;;;;
2022/06/26 05:22:07;;;;;;;4.099999;2.3;;;;;;;19.73;82.62988;95231.96;;;;
2022/06/26 05:23:09;;;;;;;4.099999;2.3;;;;;;;19.73;82.62988;95231.96;;;;
2022/06/26 05:24:09;;;;;;;4.099999;2.3;;;;;;;19.73;82.62988;95231.96;;;;
2022/06/26 05:25:10;;;;;;;4.099999;2.3;;;;;;;19.73;82.62988;95231.96;;;;
2022/06/26 05:26:11;;;;;;;4.099999;2.3;;;;;;;19.73;82.62988;95231.96;;;;
2022/06/26 05:27:11;;;;;;;4.099999;2.3;;;;;;;19.73;82.62988;95231.96;;;;
2022/06/26 05:28:12;;;;;;;4.099999;2.3;;;;;;;19.73;82.62988;95231.96;;;;
2022/06/26 05:29:12;;;;;;;2.4;2;;;;;;;20.23;81.93066;95225.34;;;;
2022/06/26 05:30:13;;;;;;;2.4;2;;;;;;;20.23;81.93066;95225.34;;;;
2022/06/26 05:31:13;;;;;;;2.4;2;;;;;;;20.23;81.93066;95225.34;;;;
2022/06/26 05:32:14;;;;;;;2.4;2;;;;;;;20.23;81.93066;95225.34;;;;
2022/06/26 05:33:14;;;;;;;2.4;2;;;;;;;20.23;81.93066;95225.34;;;;
2022/06/26 05:34:15;;;;;;;2.4;2;;;;;;;20.23;81.93066;95225.34;;;;
2022/06/26 05:35:15;;;;;;;2.4;2;;;;;;;20.23;81.93066;95225.34;;;;
2022/06/26 05:36:16;;;;;;;2.4;2;;;;;;;20.23;81.93066;95225.34;;;;
2022/06/26 05:37:17;;;;;;;2.4;2;;;;;;;20.23;81.93066;95225.34;;;;
2022/06/26 05:38:17;;;;;;;2.4;2;;;;;;;20.23;81.93066;95225.34;;;;
2022/06/26 05:39:18;;;;;;;2.4;2;;;;;;;20.23;81.93066;95225.34;;;;
2022/06/26 05:40:18;;;;;;;2.4;2;;;;;;;20.23;81.93066;95225.34;;;;
2022/06/26 05:41:19;;;;;;;2.4;2;;;;;;;20.23;81.93066;95225.34;;;;
2022/06/26 05:42:19;;;;;;;2.4;2;;;;;;;20.23;81.93066;95225.34;;;;
2022/06/26 05:43:20;;;;;;;2.4;2;;;;;;;20.23;81.93066;95225.34;;;;
2022/06/26 05:44:20;;;;;;;2.4;2;;;;;;;20.23;81.93066;95225.34;;;;
2022/06/26 05:45:21;;;;;;;2.4;2;;;;;;;20.23;81.93066;95225.34;;;;
2022/06/26 05:46:21;;;;;;;2.4;2;;;;;;;20.23;81.93066;95225.34;;;;
2022/06/26 05:47:22;;;;;;;2.4;2;;;;;;;20.23;81.93066;95225.34;;;;
2022/06/26 05:48:24;;;;;;;2.4;2;;;;;;;20.23;81.93066;95225.34;;;;
2022/06/26 05:49:25;;;;;;;2.4;2;;;;;;;20.23;81.93066;95225.34;;;;
2022/06/26 05:50:25;;;;;;;2.3;2.1;;;;;;;21.57;79.9541;95226.11;;;;
2022/06/26 05:51:26;;;;;;;2.3;2.1;;;;;;;21.57;79.9541;95226.11;;;;
2022/06/26 05:52:26;;;;;;;2.3;2.1;;;;;;;21.57;79.9541;95226.11;;;;
2022/06/26 05:53:27;;;;;;;2.3;2.1;;;;;;;21.57;79.9541;95226.11;;;;
2022/06/26 05:54:27;;;;;;;2.3;2.1;;;;;;;21.57;79.9541;95226.11;;;;
2022/06/26 05:55:28;;;;;;;2.3;2.1;;;;;;;21.57;79.9541;95226.11;;;;